Time;durP1;ratioP1;P1;durP2;ratioP2;P2;SDS_P1;SDS_P2;PMS_P1;PMS_P2;Temp;Humidity;BMP_temperature;BMP_pressure;BME280_temperature;BME280_humidity;BME280_pressure;Samples;Min_cycle;Max_cycle;Signal;HPM_P1;HPM_P2
2023/03/31 00:00:10;;;;;;;16.60;3.03;;;16.70;1.00;;;;;;5012234;28;20084;-37
2023/03/31 00:02:40;;;;;;;16.52;4.80;;;16.70;1.00;;;;;;5011897;28;20130;-37
2023/03/31 00:05:08;;;;;;;12.63;3.38;;;16.70;1.00;;;;;;5012823;28;20050;-37
2023/03/31 00:07:36;;;;;;;15.55;3.55;;;16.70;1.00;;;;;;5011158;28;20460;-37
2023/03/31 00:10:04;;;;;;;16.10;4.85;;;16.70;1.00;;;;;;5012547;28;20042;-37
2023/03/31 00:12:44;;;;;;;12.60;3.42;;;16.70;1.00;;;;;;5011741;28;20490;-37
2023/03/31 00:15:11;;;;;;;16.25;3.28;;;16.60;1.00;;;;;;5012331;28;20073;-37
2023/03/31 00:17:38;;;;;;;13.93;2.92;;;16.70;1.00;;;;;;5011707;28;20049;-37
2023/03/31 00:20:10;;;;;;;15.93;3.78;;;16.60;1.00;;;;;;5012416;28;20457;-37
2023/03/31 00:22:40;;;;;;;15.98;4.22;;;16.60;1.00;;;;;;5011631;28;20064;-37
2023/03/31 00:25:09;;;;;;;16.08;4.40;;;16.60;1.00;;;;;;5012277;28;20413;-37
2023/03/31 00:27:36;;;;;;;13.68;2.83;;;16.60;1.00;;;;;;5012131;28;20034;-37
2023/03/31 00:30:04;;;;;;;11.75;2.25;;;16.60;1.00;;;;;;5010866;28;20046;-37
2023/03/31 00:32:32;;;;;;;21.17;3.88;;;16.60;1.00;;;;;;5010561;28;20046;-37
2023/03/31 00:35:01;;;;;;;13.98;3.53;;;16.60;1.00;;;;;;5010601;28;20080;-37
2023/03/31 00:37:29;;;;;;;10.77;4.45;;;16.60;1.00;;;;;;5012131;28;20046;-37
2023/03/31 00:39:56;;;;;;;16.85;4.45;;;16.60;1.00;;;;;;5012034;28;20046;-37
2023/03/31 00:42:22;;;;;;;11.05;2.33;;;16.60;1.00;;;;;;5010512;28;20049;-37
2023/03/31 00:45:15;;;;;;;14.13;3.00;;;16.60;1.00;;;;;;5011748;28;20085;-37
2023/03/31 00:47:52;;;;;;;14.93;2.53;;;16.60;1.00;;;;;;5010763;28;20104;-37
2023/03/31 00:50:28;;;;;;;14.88;3.50;;;16.50;1.00;;;;;;5012052;28;20053;-37
2023/03/31 00:53:01;;;;;;;13.38;2.50;;;16.60;1.00;;;;;;5010148;28;20050;-37
2023/03/31 00:55:35;;;;;;;13.50;3.30;;;16.50;1.00;;;;;;5012112;28;20042;-37
2023/03/31 00:58:05;;;;;;;22.63;4.32;;;16.50;1.00;;;;;;5010839;28;20046;-37
2023/03/31 01:00:31;;;;;;;14.75;3.35;;;16.50;1.00;;;;;;5010527;28;20049;-37
2023/03/31 01:03:05;;;;;;;9.75;2.80;;;16.50;1.00;;;;;;5011151;28;20132;-37
2023/03/31 01:05:38;;;;;;;18.77;3.53;;;16.50;1.00;;;;;;5012205;28;20434;-37
2023/03/31 01:08:06;;;;;;;15.90;4.30;;;16.50;1.00;;;;;;5011836;28;20042;-37
2023/03/31 01:10:40;;;;;;;12.57;3.00;;;16.50;1.00;;;;;;5011830;28;20042;-37
2023/03/31 01:13:09;;;;;;;16.65;4.57;;;16.50;1.00;;;;;;5013733;28;20403;-37
2023/03/31 01:15:36;;;;;;;9.93;2.58;;;16.50;1.00;;;;;;5015530;28;20049;-37
2023/03/31 01:18:05;;;;;;;11.70;3.28;;;16.50;1.00;;;;;;5015570;28;20409;-37
2023/03/31 01:20:57;;;;;;;16.63;4.28;;;16.50;1.00;;;;;;5015477;28;20071;-37
2023/03/31 01:24:01;;;;;;;13.65;3.10;;;16.50;1.00;;;;;;5014918;28;20061;-37
2023/03/31 01:26:58;;;;;;;14.82;2.75;;;16.50;1.00;;;;;;5015686;28;20417;-37
2023/03/31 01:29:40;;;;;;;16.02;2.58;;;16.40;1.00;;;;;;5015438;28;20394;-37
2023/03/31 01:32:20;;;;;;;8.98;3.25;;;16.40;1.00;;;;;;5013841;28;20133;-37
2023/03/31 01:35:09;;;;;;;8.77;2.25;;;16.40;1.00;;;;;;5013724;28;20046;-37
2023/03/31 01:37:55;;;;;;;14.30;3.90;;;16.40;1.00;;;;;;5014012;28;20512;-37
2023/03/31 01:40:37;;;;;;;10.02;3.17;;;16.40;1.00;;;;;;5013839;28;20121;-37
2023/03/31 01:43:19;;;;;;;11.15;2.20;;;16.40;1.00;;;;;;5013096;28;20041;-37
2023/03/31 01:45:55;;;;;;;8.13;2.38;;;16.40;1.00;;;;;;5015237;28;20413;-37
2023/03/31 01:48:56;;;;;;;8.05;2.58;;;16.40;1.00;;;;;;5015027;28;20037;-37
2023/03/31 01:51:58;;;;;;;7.32;2.65;;;16.40;1.00;;;;;;5013624;28;20100;-42
2023/03/31 01:54:45;;;;;;;9.18;2.35;;;16.50;1.00;;;;;;4970174;28;20057;-37
2023/03/31 01:57:32;;;;;;;9.85;2.08;;;16.50;1.00;;;;;;5014753;28;20048;-37
2023/03/31 02:00:10;;;;;;;13.43;2.28;;;16.60;1.00;;;;;;5014451;28;20469;-37
2023/03/31 02:03:02;;;;;;;13.88;2.20;;;16.70;1.00;;;;;;5014431;28;20052;-37
2023/03/31 02:05:36;;;;;;;7.60;2.53;;;16.70;1.00;;;;;;4994184;28;20567;-37
2023/03/31 02:08:28;;;;;;;13.93;3.03;;;16.80;1.00;;;;;;5013328;28;20525;-37
2023/03/31 02:10:58;;;;;;;8.75;2.30;;;16.90;1.00;;;;;;5013376;28;20038;-37
2023/03/31 02:13:27;;;;;;;8.20;2.20;;;17.00;1.00;;;;;;5012607;28;20038;-37
2023/03/31 02:16:00;;;;;;;7.22;2.45;;;17.10;1.00;;;;;;5013133;28;20053;-37
2023/03/31 02:18:31;;;;;;;10.07;2.67;;;17.10;1.00;;;;;;5014622;28;20052;-37
2023/03/31 02:21:00;;;;;;;9.43;2.25;;;17.20;1.00;;;;;;5014351;28;20520;-37
2023/03/31 02:23:30;;;;;;;11.57;2.90;;;17.30;1.00;;;;;;4995982;28;20451;-37
2023/03/31 02:26:10;;;;;;;8.05;2.38;;;17.30;1.00;;;;;;5013050;28;20061;-37
2023/03/31 02:28:38;;;;;;;8.57;2.13;;;17.30;1.00;;;;;;5012904;28;20065;-37
2023/03/31 02:31:41;;;;;;;9.80;1.33;;;17.40;1.00;;;;;;5014203;28;20034;-37
2023/03/31 02:34:08;;;;;;;8.35;1.73;;;17.40;1.00;;;;;;4949683;28;20050;-37
2023/03/31 02:36:35;;;;;;;9.85;3.45;;;17.40;1.00;;;;;;5014123;28;20088;-37
2023/03/31 02:39:10;;;;;;;10.48;1.80;;;17.40;1.00;;;;;;5012778;28;20046;-37
2023/03/31 02:41:37;;;;;;;12.70;2.17;;;17.50;1.00;;;;;;5014238;28;20046;-37
2023/03/31 02:44:04;;;;;;;3.80;1.35;;;17.50;1.00;;;;;;5013129;28;20057;-37
2023/03/31 02:46:31;;;;;;;5.80;1.85;;;17.50;1.00;;;;;;5012710;28;20129;-37
2023/03/31 02:49:02;;;;;;;9.93;2.45;;;17.50;1.00;;;;;;5012554;28;20042;-37
2023/03/31 02:51:54;;;;;;;6.53;2.50;;;17.50;1.00;;;;;;5012429;28;20156;-37
2023/03/31 02:54:49;;;;;;;8.07;1.83;;;17.50;1.00;;;;;;5011876;28;20137;-37
2023/03/31 02:57:44;;;;;;;10.20;1.35;;;17.50;1.00;;;;;;5012493;28;20052;-37
2023/03/31 03:00:39;;;;;;;4.85;1.60;;;17.50;1.00;;;;;;5012171;28;20468;-37
2023/03/31 03:03:28;;;;;;;6.28;1.38;;;17.50;1.00;;;;;;5011592;28;20416;-37
2023/03/31 03:06:12;;;;;;;5.10;1.38;;;17.50;1.00;;;;;;5013579;28;20049;-37
2023/03/31 03:09:00;;;;;;;8.07;1.50;;;17.50;1.00;;;;;;5013650;28;20559;-37
2023/03/31 03:11:46;;;;;;;4.82;1.35;;;17.50;1.00;;;;;;5013438;28;20073;-37
2023/03/31 03:14:15;;;;;;;6.40;1.80;;;17.50;1.00;;;;;;5012549;28;20120;-37
2023/03/31 03:16:47;;;;;;;3.53;1.17;;;17.40;1.00;;;;;;5012095;28;20092;-37
2023/03/31 03:19:21;;;;;;;3.22;1.50;;;17.40;1.00;;;;;;5013296;28;20037;-37
2023/03/31 03:21:47;;;;;;;;;;;17.40;1.00;;;;;;5013693;28;20088;-37
2023/03/31 03:24:15;;;;;;;4.05;0.90;;;17.40;1.00;;;;;;5012586;28;19927;-37
2023/03/31 03:26:46;;;;;;;4.82;1.83;;;17.40;1.00;;;;;;5013128;28;20042;-37
2023/03/31 03:29:13;;;;;;;4.85;1.38;;;17.40;1.00;;;;;;5013235;28;20049;-37
2023/03/31 03:31:41;;;;;;;5.47;1.10;;;17.40;1.00;;;;;;5013081;28;20074;-37
2023/03/31 03:34:08;;;;;;;4.85;1.60;;;17.40;1.00;;;;;;5012156;28;20042;-37
2023/03/31 03:36:38;;;;;;;6.25;1.77;;;17.30;1.00;;;;;;5012704;28;20042;-37
2023/03/31 03:39:06;;;;;;;7.80;2.60;;;17.30;1.00;;;;;;5012914;28;20084;-37
2023/03/31 03:41:33;;;;;;;3.63;0.73;;;17.30;1.00;;;;;;5012830;28;20413;-37
2023/03/31 03:44:00;;;;;;;4.45;1.58;;;17.30;1.00;;;;;;5010796;28;20046;-43
2023/03/31 03:46:27;;;;;;;6.32;1.33;;;17.30;1.00;;;;;;5012988;28;20045;-37
2023/03/31 03:48:54;;;;;;;5.75;1.10;;;17.30;1.00;;;;;;5012694;28;20668;-37
2023/03/31 03:51:22;;;;;;;2.88;1.02;;;17.30;1.00;;;;;;5012811;28;20099;-37
2023/03/31 03:53:48;;;;;;;3.35;0.98;;;17.30;1.00;;;;;;5011968;28;20045;-37
2023/03/31 03:56:15;;;;;;;3.72;0.80;;;17.30;1.00;;;;;;5012521;28;20062;-36
2023/03/31 03:58:42;;;;;;;6.50;1.25;;;17.20;1.00;;;;;;5012594;28;20041;-37
2023/03/31 04:01:09;;;;;;;4.35;1.23;;;17.20;1.00;;;;;;5024143;22;20096;-35
2023/03/31 04:03:36;;;;;;;4.97;1.15;;;17.20;1.00;;;;;;5011784;28;20045;-35
2023/03/31 04:06:03;;;;;;;5.38;1.52;;;17.20;1.00;;;;;;5012539;28;20049;-35
2023/03/31 04:08:30;;;;;;;4.40;1.20;;;17.10;1.00;;;;;;5012362;28;20046;-35
2023/03/31 04:10:57;;;;;;;5.43;1.17;;;17.10;1.00;;;;;;5012382;28;20041;-35
2023/03/31 04:13:23;;;;;;;4.63;1.25;;;17.10;1.00;;;;;;5011862;28;20084;-35
2023/03/31 04:15:50;;;;;;;4.43;1.00;;;17.10;1.00;;;;;;5012504;28;20400;-35
2023/03/31 04:18:23;;;;;;;6.45;1.25;;;17.10;1.00;;;;;;5012394;28;20112;-35
2023/03/31 04:21:02;;;;;;;5.22;1.48;;;17.10;1.00;;;;;;5012296;28;20112;-35
2023/03/31 04:23:32;;;;;;;3.78;1.10;;;17.10;1.00;;;;;;5011665;28;20472;-35
2023/03/31 04:25:59;;;;;;;3.28;0.77;;;17.10;1.00;;;;;;5012324;28;20579;-35
2023/03/31 04:28:33;;;;;;;2.95;1.10;;;17.00;1.00;;;;;;5012200;28;20057;-35
2023/03/31 04:31:02;;;;;;;5.50;1.40;;;17.00;1.00;;;;;;5012193;28;20084;-35
2023/03/31 04:33:29;;;;;;;4.85;1.02;;;17.00;1.00;;;;;;5011388;28;20121;-35
2023/03/31 04:35:56;;;;;;;3.78;1.27;;;17.00;1.00;;;;;;5012147;28;20046;-34
2023/03/31 04:38:25;;;;;;;7.32;1.08;;;17.00;1.00;;;;;;5012182;28;20038;-35
2023/03/31 04:40:53;;;;;;;2.47;0.98;;;17.00;1.00;;;;;;5012119;28;20069;-35
2023/03/31 04:43:20;;;;;;;4.32;1.35;;;17.00;1.00;;;;;;5011403;28;20046;-35
2023/03/31 04:45:47;;;;;;;4.32;1.23;;;17.00;1.00;;;;;;5011753;28;20173;-35
2023/03/31 04:48:14;;;;;;;3.00;1.15;;;17.00;1.00;;;;;;5014895;28;20049;-35
2023/03/31 04:50:41;;;;;;;5.68;1.55;;;17.00;1.00;;;;;;5015871;28;20053;-35
2023/03/31 04:53:08;;;;;;;4.85;1.38;;;16.90;1.00;;;;;;5015241;28;20046;-35
2023/03/31 04:55:35;;;;;;;3.05;0.90;;;16.90;1.00;;;;;;5015838;28;20124;-35
2023/03/31 04:58:02;;;;;;;3.75;0.90;;;16.90;1.00;;;;;;5016039;28;20042;-35
2023/03/31 05:00:29;;;;;;;2.47;1.23;;;16.90;1.00;;;;;;5015630;28;20046;-35
2023/03/31 05:02:55;;;;;;;4.63;1.27;;;16.90;1.00;;;;;;5015409;28;20477;-35
2023/03/31 05:05:22;;;;;;;3.28;1.17;;;16.90;1.00;;;;;;5016016;28;20042;-35
2023/03/31 05:07:49;;;;;;;5.18;1.15;;;16.90;1.00;;;;;;5015843;28;20413;-35
2023/03/31 05:10:16;;;;;;;3.97;1.40;;;16.90;1.00;;;;;;5015527;28;20549;-35
2023/03/31 05:12:43;;;;;;;3.17;0.93;;;16.90;1.00;;;;;;5014846;28;20402;-35
2023/03/31 05:15:10;;;;;;;4.85;1.33;;;16.80;1.00;;;;;;5015728;28;20144;-35
2023/03/31 05:17:37;;;;;;;4.63;1.75;;;16.80;1.00;;;;;;5015694;28;20069;-35
2023/03/31 05:20:08;;;;;;;4.00;1.52;;;16.80;1.00;;;;;;5008802;28;20042;-35
2023/03/31 05:22:36;;;;;;;4.85;1.10;;;16.80;1.00;;;;;;5013559;28;20100;-35
2023/03/31 05:25:05;;;;;;;4.72;0.90;;;16.80;1.00;;;;;;5014161;28;20054;-35
2023/03/31 05:27:33;;;;;;;2.72;1.45;;;16.80;1.00;;;;;;5014605;28;20041;-35
2023/03/31 05:30:00;;;;;;;4.25;1.08;;;16.80;1.00;;;;;;5014835;28;20109;-35
2023/03/31 05:32:27;;;;;;;5.25;1.75;;;16.80;1.00;;;;;;5014174;28;20037;-35
2023/03/31 05:34:57;;;;;;;9.25;1.45;;;16.80;1.00;;;;;;5014404;28;20046;-35
2023/03/31 05:37:24;;;;;;;4.75;1.23;;;16.80;1.00;;;;;;5014465;28;20034;-35
2023/03/31 05:39:51;;;;;;;8.50;1.25;;;16.80;1.00;;;;;;4997234;28;20049;-35
2023/03/31 05:42:19;;;;;;;3.60;1.30;;;16.80;1.00;;;;;;5013867;28;20806;-34
2023/03/31 05:44:46;;;;;;;3.67;1.23;;;16.80;1.00;;;;;;5014121;28;20096;-35
2023/03/31 05:47:13;;;;;;;5.95;1.05;;;16.80;1.00;;;;;;5014310;28;20053;-35
2023/03/31 05:49:40;;;;;;;2.63;1.13;;;16.80;1.00;;;;;;5014298;28;20034;-35
2023/03/31 05:52:07;;;;;;;2.70;1.13;;;16.80;1.00;;;;;;5014254;28;20053;-35
2023/03/31 05:54:34;;;;;;;2.95;1.17;;;16.80;1.00;;;;;;5013558;28;20096;-35
2023/03/31 05:57:01;;;;;;;5.57;1.60;;;16.80;1.00;;;;;;5014207;28;20042;-35
2023/03/31 05:59:28;;;;;;;6.43;1.35;;;16.80;1.00;;;;;;5006796;28;20048;-35
2023/03/31 06:01:55;;;;;;;3.72;0.88;;;16.80;1.00;;;;;;5014315;28;20065;-35
2023/03/31 06:04:23;;;;;;;5.47;1.65;;;16.80;1.00;;;;;;5013705;28;20114;-35
2023/03/31 06:06:50;;;;;;;3.70;1.25;;;16.80;1.00;;;;;;5014648;28;20505;-34
2023/03/31 06:09:17;;;;;;;5.90;1.50;;;16.80;1.00;;;;;;5003306;28;20056;-35
2023/03/31 06:11:44;;;;;;;2.97;1.17;;;16.80;1.00;;;;;;4996274;28;20045;-35
2023/03/31 06:14:11;;;;;;;12.85;1.27;;;16.70;1.00;;;;;;4998559;28;20042;-35
2023/03/31 06:16:38;;;;;;;3.92;0.93;;;16.70;1.00;;;;;;4994615;28;20048;-35
2023/03/31 06:19:05;;;;;;;5.65;1.73;;;16.70;1.00;;;;;;5011733;28;20497;-34
2023/03/31 06:21:33;;;;;;;6.85;0.95;;;16.70;1.00;;;;;;5014198;28;20048;-34
2023/03/31 06:24:00;;;;;;;4.32;1.10;;;16.70;1.00;;;;;;5010281;28;20042;-34
2023/03/31 06:26:27;;;;;;;25.25;1.63;;;16.70;1.00;;;;;;4999776;28;20046;-34
2023/03/31 06:28:54;;;;;;;8.15;1.15;;;16.70;1.00;;;;;;5014139;28;20511;-34
2023/03/31 06:31:23;;;;;;;3.83;0.90;;;16.70;1.00;;;;;;5013972;28;20046;-34
2023/03/31 06:33:50;;;;;;;4.05;1.00;;;16.70;1.00;;;;;;5013493;28;20046;-36
2023/03/31 06:36:19;;;;;;;3.40;1.08;;;16.70;1.00;;;;;;5013938;28;20044;-34
2023/03/31 06:38:47;;;;;;;6.63;0.93;;;16.70;1.00;;;;;;5013978;28;20045;-35
2023/03/31 06:41:16;;;;;;;6.72;1.20;;;16.70;1.00;;;;;;5013955;28;20081;-34
2023/03/31 06:43:43;;;;;;;2.38;1.38;;;16.70;1.00;;;;;;5013262;28;20046;-34
2023/03/31 06:46:10;;;;;;;7.88;1.42;;;16.70;1.00;;;;;;4996292;28;20050;-35
2023/03/31 06:48:38;;;;;;;3.10;0.90;;;16.60;1.00;;;;;;4996474;28;20437;-34
2023/03/31 06:51:06;;;;;;;5.40;1.10;;;16.60;1.00;;;;;;5013667;28;20065;-35
2023/03/31 06:53:34;;;;;;;2.95;0.90;;;16.60;1.00;;;;;;5012985;28;20494;-34
2023/03/31 06:56:01;;;;;;;2.15;0.90;;;16.60;1.00;;;;;;5013862;28;20050;-35
2023/03/31 06:58:28;;;;;;;1.70;1.10;;;16.60;1.00;;;;;;5013724;28;20077;-34
2023/03/31 07:00:57;;;;;;;3.38;0.90;;;16.60;1.00;;;;;;5013086;28;20054;-34
2023/03/31 07:03:24;;;;;;;2.50;1.17;;;16.60;1.00;;;;;;4995197;28;20050;-34
2023/03/31 07:06:07;;;;;;;3.42;1.38;;;16.60;1.00;;;;;;5013529;28;20052;-34
2023/03/31 07:08:37;;;;;;;2.05;0.98;;;16.60;1.00;;;;;;5013442;28;20065;-34
2023/03/31 07:11:04;;;;;;;5.25;1.08;;;16.60;1.00;;;;;;5012483;28;20056;-34
2023/03/31 07:13:31;;;;;;;2.55;0.77;;;16.60;1.00;;;;;;5012676;28;20038;-34
2023/03/31 07:15:58;;;;;;;4.15;0.88;;;16.60;1.00;;;;;;5013290;28;20037;-34
2023/03/31 07:18:30;;;;;;;3.95;1.05;;;16.60;1.00;;;;;;5013354;28;20120;-35
2023/03/31 07:21:00;;;;;;;3.83;0.73;;;16.50;1.00;;;;;;5013202;28;20077;-34
2023/03/31 07:23:27;;;;;;;2.97;0.82;;;16.50;1.00;;;;;;5012485;28;20125;-34
2023/03/31 07:25:54;;;;;;;3.78;1.80;;;16.60;1.00;;;;;;5013228;28;20061;-34
2023/03/31 07:28:20;;;;;;;1.85;0.90;;;16.50;1.00;;;;;;5013134;28;20100;-34
2023/03/31 07:30:47;;;;;;;4.22;0.95;;;16.50;1.00;;;;;;5013002;28;20042;-35
2023/03/31 07:33:14;;;;;;;3.88;1.48;;;16.50;1.00;;;;;;5012345;28;20046;-34
2023/03/31 07:35:41;;;;;;;3.80;1.08;;;16.50;1.00;;;;;;5013247;28;20053;-34
2023/03/31 07:38:12;;;;;;;3.03;0.70;;;16.60;1.00;;;;;;5012942;28;20050;-34
2023/03/31 07:40:39;;;;;;;1.73;0.60;;;16.70;1.00;;;;;;5012745;28;20092;-34
2023/03/31 07:43:06;;;;;;;1.58;0.82;;;16.70;1.00;;;;;;4994565;28;20104;-34
2023/03/31 07:45:34;;;;;;;2.13;0.57;;;16.70;1.00;;;;;;5012843;28;20046;-34
2023/03/31 07:48:01;;;;;;;2.58;0.98;;;16.80;1.00;;;;;;5012786;28;20045;-34
2023/03/31 07:50:28;;;;;;;1.15;0.50;;;16.90;1.00;;;;;;5012738;28;20034;-34
2023/03/31 07:52:57;;;;;;;1.00;0.52;;;17.00;1.00;;;;;;4994202;28;20073;-34
2023/03/31 07:55:25;;;;;;;2.60;0.70;;;17.10;1.00;;;;;;5012560;28;20494;-34
2023/03/31 07:57:51;;;;;;;5.20;0.93;;;17.10;1.00;;;;;;5012609;28;20504;-34
2023/03/31 08:00:19;;;;;;;4.47;0.85;;;17.20;1.00;;;;;;5012484;28;20042;-35
2023/03/31 08:02:46;;;;;;;1.73;0.45;;;17.30;1.00;;;;;;5011927;28;20500;-34
2023/03/31 08:05:15;;;;;;;2.67;0.60;;;17.30;1.00;;;;;;5012572;28;20490;-34
2023/03/31 08:07:44;;;;;;;2.05;0.57;;;17.40;1.00;;;;;;5012329;28;20540;-34
2023/03/31 08:10:18;;;;;;;1.10;0.50;;;17.40;1.00;;;;;;5012430;28;20557;-35
2023/03/31 08:12:45;;;;;;;2.47;0.82;;;17.40;1.00;;;;;;5011826;28;20046;-34
2023/03/31 08:15:11;;;;;;;2.42;0.63;;;17.50;1.00;;;;;;5012473;28;20145;-34
2023/03/31 08:17:39;;;;;;;0.90;0.40;;;17.50;1.00;;;;;;5012393;28;20516;-34
2023/03/31 08:20:06;;;;;;;2.03;0.80;;;17.50;1.00;;;;;;4994698;28;20049;-35
2023/03/31 08:22:34;;;;;;;3.67;0.68;;;17.50;1.00;;;;;;5011515;28;20049;-35
2023/03/31 08:25:01;;;;;;;3.60;0.80;;;17.50;1.00;;;;;;5012009;28;20038;-35
2023/03/31 08:27:36;;;;;;;3.50;0.80;;;17.60;1.00;;;;;;5012285;28;20056;-34
2023/03/31 08:30:05;;;;;;;2.22;0.93;;;17.60;1.00;;;;;;5012151;28;20533;-34
2023/03/31 08:32:33;;;;;;;5.38;1.42;;;17.60;1.00;;;;;;5011740;28;20551;-34
2023/03/31 08:35:00;;;;;;;1.52;0.68;;;17.60;1.00;;;;;;5011677;28;20046;-35
2023/03/31 08:37:27;;;;;;;1.83;0.77;;;17.60;1.00;;;;;;5012144;28;20386;-35
2023/03/31 08:39:54;;;;;;;2.20;0.63;;;17.60;1.00;;;;;;5012095;28;20434;-35
2023/03/31 08:42:33;;;;;;;1.75;0.50;;;17.60;1.00;;;;;;5011780;28;20379;-34
2023/03/31 08:45:21;;;;;;;3.03;0.75;;;17.60;1.00;;;;;;5011756;28;20041;-34
2023/03/31 08:47:53;;;;;;;3.30;0.95;;;17.60;1.00;;;;;;5011931;28;20501;-35
2023/03/31 08:50:26;;;;;;;2.25;0.77;;;17.60;1.00;;;;;;5011953;28;20045;-35
2023/03/31 08:53:48;;;;;;;4.95;0.50;;;17.60;1.00;;;;;;5011556;28;20053;-34
2023/03/31 08:57:20;;;;;;;2.35;0.98;;;17.60;1.00;;;;;;5011910;28;20161;-34
2023/03/31 09:00:12;;;;;;;3.92;0.85;;;17.60;1.00;;;;;;5010965;28;20066;-35
2023/03/31 09:03:17;;;;;;;1.27;0.63;;;17.60;1.00;;;;;;5001127;28;20050;-35
2023/03/31 09:06:42;;;;;;;2.33;0.82;;;17.50;1.00;;;;;;5010636;28;20054;-35
2023/03/31 09:13:39;;;;;;;3.47;0.70;;;17.50;1.00;;;;;;4944445;29;20541;-34
2023/03/31 09:16:25;;;;;;;4.80;0.88;;;17.50;1.00;;;;;;4950867;29;20103;-35
2023/03/31 09:18:58;;;;;;;3.78;1.05;;;17.50;1.00;;;;;;4951202;29;20051;-34
2023/03/31 09:21:32;;;;;;;4.40;0.90;;;17.50;1.00;;;;;;4950990;28;20082;-35
2023/03/31 09:24:31;;;;;;;4.50;1.10;;;17.50;1.00;;;;;;4973105;28;20513;-35
2023/03/31 09:27:05;;;;;;;3.03;0.95;;;17.50;1.00;;;;;;5011678;28;20041;-35
2023/03/31 09:29:31;;;;;;;;;;;17.50;1.00;;;;;;5012237;28;20545;-35
2023/03/31 09:32:16;;;;;;;2.85;1.13;;;17.50;1.00;;;;;;5011449;28;19928;-35
2023/03/31 09:34:45;;;;;;;2.80;1.23;;;17.50;1.00;;;;;;5014570;28;20103;-34
2023/03/31 09:37:12;;;;;;;3.30;0.82;;;17.50;1.00;;;;;;5015269;28;20415;-34
2023/03/31 09:39:40;;;;;;;3.83;1.17;;;17.50;1.00;;;;;;5015101;28;20449;-35
2023/03/31 09:42:11;;;;;;;5.80;1.05;;;17.50;1.00;;;;;;5014986;28;20049;-35
2023/03/31 09:44:46;;;;;;;5.80;0.98;;;17.50;1.00;;;;;;5014595;28;20046;-35
2023/03/31 09:47:38;;;;;;;5.50;1.08;;;17.50;1.00;;;;;;5015095;28;20545;-34
2023/03/31 09:50:08;;;;;;;3.42;0.88;;;17.50;1.00;;;;;;5014707;28;20081;-35
2023/03/31 09:52:49;;;;;;;6.18;0.88;;;17.50;1.00;;;;;;5014685;28;20053;-34
2023/03/31 09:55:24;;;;;;;4.07;1.17;;;17.50;1.00;;;;;;5014951;28;20034;-34
2023/03/31 09:58:06;;;;;;;5.93;1.13;;;17.50;1.00;;;;;;5014840;28;20070;-35
2023/03/31 10:00:34;;;;;;;3.42;0.88;;;17.50;1.00;;;;;;5028937;23;21360;-35
2023/03/31 10:03:06;;;;;;;4.43;1.85;;;17.50;1.00;;;;;;5033645;28;20408;-36
2023/03/31 10:05:50;;;;;;;4.05;1.35;;;17.50;1.00;;;;;;5014782;28;20494;-36
2023/03/31 10:08:27;;;;;;;6.25;1.15;;;17.50;1.00;;;;;;5014706;28;20504;-36
2023/03/31 10:11:08;;;;;;;7.03;0.98;;;17.50;1.00;;;;;;5014770;28;20038;-36
2023/03/31 10:13:52;;;;;;;3.88;1.10;;;17.50;1.00;;;;;;5013905;28;20053;-36
2023/03/31 10:16:29;;;;;;;5.55;1.30;;;17.50;1.00;;;;;;5014629;28;20085;-36
2023/03/31 10:19:17;;;;;;;4.38;1.00;;;17.40;1.00;;;;;;5014277;28;20041;-36
2023/03/31 10:21:55;;;;;;;5.60;1.15;;;17.40;1.00;;;;;;5014253;28;20046;-36
2023/03/31 10:24:21;;;;;;;2.60;0.88;;;17.40;1.00;;;;;;5013720;28;20046;-36
2023/03/31 10:26:52;;;;;;;6.30;1.38;;;17.40;1.00;;;;;;5014257;28;20092;-36
2023/03/31 10:29:25;;;;;;;6.90;1.02;;;17.40;1.00;;;;;;5014313;28;20096;-36
2023/03/31 10:31:52;;;;;;;3.65;1.13;;;17.40;1.00;;;;;;5014205;28;20046;-35
2023/03/31 10:34:21;;;;;;;6.97;0.90;;;17.40;1.00;;;;;;5014070;28;20046;-43
2023/03/31 10:36:50;;;;;;;4.90;0.98;;;17.40;1.00;;;;;;5014547;28;20100;-36
2023/03/31 10:39:18;;;;;;;6.28;1.17;;;17.40;1.00;;;;;;5014165;28;20409;-36
2023/03/31 10:41:51;;;;;;;5.07;1.23;;;17.40;1.00;;;;;;5013935;28;20502;-35
2023/03/31 10:44:37;;;;;;;8.10;1.40;;;17.40;1.00;;;;;;5013146;28;20514;-35
2023/03/31 10:47:14;;;;;;;5.88;1.77;;;17.40;1.00;;;;;;5014079;28;20418;-36
2023/03/31 10:49:43;;;;;;;3.95;1.13;;;17.40;1.00;;;;;;5013979;28;20046;-36
2023/03/31 10:52:18;;;;;;;5.13;1.20;;;17.40;1.00;;;;;;5013298;28;20121;-36
2023/03/31 10:54:47;;;;;;;7.53;1.35;;;17.40;1.00;;;;;;5013412;28;20074;-36
2023/03/31 10:57:14;;;;;;;7.00;0.88;;;17.40;1.00;;;;;;5013730;28;20116;-36
2023/03/31 11:00:04;;;;;;;3.40;0.75;;;17.40;1.00;;;;;;5013622;28;20042;-36
2023/03/31 11:03:01;;;;;;;2.65;0.80;;;17.40;1.00;;;;;;5013007;28;20137;-35
2023/03/31 11:05:47;;;;;;;6.13;1.80;;;17.40;1.00;;;;;;5013710;28;20440;-36
2023/03/31 11:08:36;;;;;;;6.45;1.33;;;17.40;1.00;;;;;;5013669;28;20041;-36
2023/03/31 11:11:40;;;;;;;6.43;1.20;;;17.40;1.00;;;;;;5013258;28;20117;-36
2023/03/31 11:14:29;;;;;;;4.07;1.00;;;17.40;1.00;;;;;;5010041;28;20111;-36
2023/03/31 11:17:13;;;;;;;7.13;1.55;;;17.40;1.00;;;;;;5013365;28;20042;-36
2023/03/31 11:20:09;;;;;;;5.28;1.33;;;17.40;1.00;;;;;;5013538;28;20045;-36
2023/03/31 11:22:53;;;;;;;4.68;1.02;;;17.40;1.00;;;;;;5012775;28;20449;-36
2023/03/31 11:25:43;;;;;;;4.40;0.75;;;17.40;1.00;;;;;;5013293;28;20053;-35
2023/03/31 11:28:19;;;;;;;5.75;1.10;;;17.40;1.00;;;;;;5013349;28;20085;-36
2023/03/31 11:31:21;;;;;;;8.98;1.73;;;17.40;1.00;;;;;;5012959;28;20315;-36
2023/03/31 11:33:47;;;;;;;6.70;1.17;;;17.40;1.00;;;;;;4958959;28;20058;-36
2023/03/31 11:36:27;;;;;;;5.25;1.02;;;17.40;1.00;;;;;;5012986;28;20498;-36
2023/03/31 11:39:24;;;;;;;9.82;1.02;;;17.40;1.00;;;;;;5013004;28;20054;-36
2023/03/31 11:41:57;;;;;;;3.83;1.33;;;17.40;1.00;;;;;;5012847;28;20493;-36
2023/03/31 11:44:29;;;;;;;3.30;0.80;;;17.40;1.00;;;;;;5012098;28;20038;-36
2023/03/31 11:47:02;;;;;;;5.72;1.60;;;17.40;1.00;;;;;;5012811;28;20089;-36
2023/03/31 11:49:37;;;;;;;2.58;0.65;;;17.40;1.00;;;;;;5012828;28;20097;-36
2023/03/31 11:52:26;;;;;;;5.95;1.42;;;17.40;1.00;;;;;;5012658;28;20088;-35
2023/03/31 11:55:17;;;;;;;8.98;1.20;;;17.40;1.00;;;;;;5012183;28;20060;-36
2023/03/31 11:58:04;;;;;;;5.95;1.25;;;17.30;1.00;;;;;;5012509;28;20651;-36
2023/03/31 12:00:40;;;;;;;3.15;1.10;;;17.40;1.00;;;;;;5012040;28;20561;-36
2023/03/31 12:03:42;;;;;;;5.45;1.40;;;17.40;1.00;;;;;;5012302;28;20513;-36
2023/03/31 12:06:17;;;;;;;4.32;1.55;;;17.30;1.00;;;;;;5012628;28;20061;-36
2023/03/31 12:09:23;;;;;;;5.93;1.58;;;17.30;1.00;;;;;;5012389;28;20556;-36
2023/03/31 12:12:15;;;;;;;7.90;1.23;;;17.30;1.00;;;;;;4994732;28;20469;-36
2023/03/31 12:14:47;;;;;;;7.22;2.10;;;17.30;1.00;;;;;;5012102;28;20052;-36
2023/03/31 12:17:41;;;;;;;4.50;1.15;;;17.40;1.00;;;;;;5012309;28;20512;-36
2023/03/31 12:20:28;;;;;;;7.32;0.93;;;17.30;1.00;;;;;;5009650;28;20056;-36
2023/03/31 12:22:57;;;;;;;4.18;1.20;;;17.30;1.00;;;;;;4994194;28;20506;-36
2023/03/31 12:25:26;;;;;;;4.43;1.13;;;17.30;1.00;;;;;;5012406;28;20129;-35
2023/03/31 12:27:53;;;;;;;2.33;1.10;;;17.30;1.00;;;;;;5012272;28;20120;-36
2023/03/31 12:30:33;;;;;;;3.20;0.70;;;17.30;1.00;;;;;;5012036;28;20045;-36
2023/03/31 12:33:31;;;;;;;5.82;1.05;;;17.30;1.00;;;;;;5011393;28;20494;-36
2023/03/31 12:36:10;;;;;;;2.67;0.60;;;17.30;1.00;;;;;;5012275;28;20347;-36
2023/03/31 12:39:07;;;;;;;5.97;1.48;;;17.30;1.00;;;;;;5012016;28;20085;-36
2023/03/31 12:41:37;;;;;;;3.08;0.93;;;17.30;1.00;;;;;;5012084;28;20104;-35
2023/03/31 12:44:23;;;;;;;2.35;0.70;;;17.30;1.00;;;;;;5011297;28;20129;-36
2023/03/31 12:46:58;;;;;;;5.78;1.00;;;17.30;1.00;;;;;;5012027;28;20042;-36
2023/03/31 12:49:50;;;;;;;6.40;1.35;;;17.30;1.00;;;;;;5012073;28;20054;-36
2023/03/31 12:52:21;;;;;;;3.95;0.77;;;17.30;1.00;;;;;;5011494;28;20042;-36
2023/03/31 12:55:30;;;;;;;5.93;1.50;;;17.30;1.00;;;;;;5011701;28;20042;-36
2023/03/31 12:58:36;;;;;;;6.13;1.02;;;17.30;1.00;;;;;;4983481;28;20498;-36
2023/03/31 13:01:20;;;;;;;7.32;1.73;;;17.30;1.00;;;;;;4950948;29;20519;-36
2023/03/31 13:03:50;;;;;;;;;;;17.30;1.00;;;;;;4992366;28;20413;-36
2023/03/31 13:06:29;;;;;;;4.70;0.68;;;17.30;1.00;;;;;;5011950;28;19957;-36
2023/03/31 13:09:02;;;;;;;3.60;0.80;;;17.30;1.00;;;;;;5014447;28;20042;-36
2023/03/31 13:11:36;;;;;;;2.85;0.70;;;17.30;1.00;;;;;;5015564;28;20049;-36
2023/03/31 13:14:16;;;;;;;5.88;0.70;;;17.30;1.00;;;;;;5014874;28;20049;-36
2023/03/31 13:16:42;;;;;;;3.17;1.00;;;17.30;1.00;;;;;;5015672;28;20045;-36
2023/03/31 13:19:24;;;;;;;3.08;0.93;;;17.30;1.00;;;;;;4997968;28;20076;-36
2023/03/31 13:21:56;;;;;;;4.20;0.80;;;17.30;1.00;;;;;;5015499;28;20477;-35
2023/03/31 13:24:25;;;;;;;4.18;1.30;;;17.30;1.00;;;;;;5014730;28;20092;-36
2023/03/31 13:26:55;;;;;;;3.58;1.48;;;17.30;1.00;;;;;;5015455;28;20120;-36
2023/03/31 13:29:25;;;;;;;6.97;0.98;;;17.30;1.00;;;;;;5015482;28;20042;-36
2023/03/31 13:32:01;;;;;;;5.75;1.45;;;17.30;1.00;;;;;;4997858;28;20053;-36
2023/03/31 13:34:30;;;;;;;5.28;1.15;;;17.30;1.00;;;;;;4997258;28;20092;-36
2023/03/31 13:37:29;;;;;;;3.45;1.10;;;17.30;1.00;;;;;;5015112;28;20081;-36